sensor_id;sensor_type;location;lat;lon;timestamp;pressure;altitude;pressure_sealevel;temperature;humidity
55685;BME280;41883;49.544;8.646;2023-05-11T00:02:10;100329.63;;;10.98;nan
55685;BME280;41883;49.544;8.646;2023-05-11T00:04:36;100325.69;;;10.94;nan
55685;BME280;41883;49.544;8.646;2023-05-11T00:07:01;100328.47;;;10.93;nan
55685;BME280;41883;49.544;8.646;2023-05-11T00:09:26;100320.53;;;10.93;nan
55685;BME280;41883;49.544;8.646;2023-05-11T00:11:52;100320.38;;;10.94;nan
55685;BME280;41883;49.544;8.646;2023-05-11T00:14:17;100317.75;;;10.94;nan
55685;BME280;41883;49.544;8.646;2023-05-11T00:16:42;100320.38;;;10.94;nan
55685;BME280;41883;49.544;8.646;2023-05-11T00:19:07;100322.03;;;10.95;nan
55685;BME280;41883;49.544;8.646;2023-05-11T00:21:32;100319.91;;;10.99;nan
55685;BME280;41883;49.544;8.646;2023-05-11T00:23:58;100325.03;;;11.00;nan
55685;BME280;41883;49.544;8.646;2023-05-11T00:26:23;100322.38;;;11.00;nan
55685;BME280;41883;49.544;8.646;2023-05-11T00:28:50;100313.75;;;10.98;nan
55685;BME280;41883;49.544;8.646;2023-05-11T00:31:15;100313.75;;;10.98;nan
55685;BME280;41883;49.544;8.646;2023-05-11T00:33:40;100310.31;;;10.98;nan
55685;BME280;41883;49.544;8.646;2023-05-11T00:36:05;100312.78;;;10.99;nan
55685;BME280;41883;49.544;8.646;2023-05-11T00:38:32;100307.50;;;10.99;nan
55685;BME280;41883;49.544;8.646;2023-05-11T00:40:57;100315.44;;;10.99;nan
55685;BME280;41883;49.544;8.646;2023-05-11T00:43:22;100314.75;;;10.97;nan
55685;BME280;41883;49.544;8.646;2023-05-11T00:45:47;100308.13;;;10.93;nan
55685;BME280;41883;49.544;8.646;2023-05-11T00:48:14;100305.81;;;10.90;nan
55685;BME280;41883;49.544;8.646;2023-05-11T00:50:39;100310.28;;;10.90;nan
55685;BME280;41883;49.544;8.646;2023-05-11T00:53:04;100303.50;;;10.87;nan
55685;BME280;41883;49.544;8.646;2023-05-11T00:55:30;100305.59;;;10.83;nan
55685;BME280;41883;49.544;8.646;2023-05-11T00:57:55;100305.75;;;10.82;nan
55685;BME280;41883;49.544;8.646;2023-05-11T01:00:20;100304.25;;;10.79;nan
55685;BME280;41883;49.544;8.646;2023-05-11T01:02:46;100308.91;;;10.77;nan
55685;BME280;41883;49.544;8.646;2023-05-11T01:05:11;100308.22;;;10.75;nan
55685;BME280;41883;49.544;8.646;2023-05-11T01:10:23;100307.88;;;10.70;nan
55685;BME280;41883;49.544;8.646;2023-05-11T01:17:50;100312.97;;;10.63;nan
55685;BME280;41883;49.544;8.646;2023-05-11T01:20:17;100304.84;;;10.65;nan
55685;BME280;41883;49.544;8.646;2023-05-11T01:28:06;100302.59;;;10.70;nan
55685;BME280;41883;49.544;8.646;2023-05-11T01:30:39;100305.53;;;10.67;nan
55685;BME280;41883;49.544;8.646;2023-05-11T01:33:08;100307.69;;;10.63;nan
55685;BME280;41883;49.544;8.646;2023-05-11T01:35:37;100301.88;;;10.60;nan
55685;BME280;41883;49.544;8.646;2023-05-11T01:38:03;100309.13;;;10.58;nan
55685;BME280;41883;49.544;8.646;2023-05-11T01:40:30;100305.28;;;10.52;nan
55685;BME280;41883;49.544;8.646;2023-05-11T01:42:57;100307.25;;;10.50;nan
55685;BME280;41883;49.544;8.646;2023-05-11T01:45:24;100304.78;;;10.49;nan
55685;BME280;41883;49.544;8.646;2023-05-11T01:47:50;100316.34;;;10.48;nan
55685;BME280;41883;49.544;8.646;2023-05-11T01:50:16;100309.22;;;10.48;nan
55685;BME280;41883;49.544;8.646;2023-05-11T01:52:43;100312.72;;;10.49;nan
55685;BME280;41883;49.544;8.646;2023-05-11T01:55:10;100314.38;;;10.50;nan
55685;BME280;41883;49.544;8.646;2023-05-11T01:57:37;100303.66;;;10.51;nan
55685;BME280;41883;49.544;8.646;2023-05-11T02:00:03;100306.94;;;10.53;nan
55685;BME280;41883;49.544;8.646;2023-05-11T02:02:29;100311.25;;;10.54;nan
55685;BME280;41883;49.544;8.646;2023-05-11T02:04:56;100300.53;;;10.56;nan
55685;BME280;41883;49.544;8.646;2023-05-11T02:07:21;100312.75;;;10.57;nan
55685;BME280;41883;49.544;8.646;2023-05-11T02:09:48;100306.13;;;10.53;nan
55685;BME280;41883;49.544;8.646;2023-05-11T02:12:14;100309.75;;;10.52;nan
55685;BME280;41883;49.544;8.646;2023-05-11T02:14:42;100312.41;;;10.52;nan
55685;BME280;41883;49.544;8.646;2023-05-11T02:17:07;100304.28;;;10.53;nan
55685;BME280;41883;49.544;8.646;2023-05-11T02:19:33;100305.97;;;10.54;nan
55685;BME280;41883;49.544;8.646;2023-05-11T02:21:58;100302.19;;;10.57;nan
55685;BME280;41883;49.544;8.646;2023-05-11T02:24:24;100297.56;;;10.59;nan
55685;BME280;41883;49.544;8.646;2023-05-11T02:26:51;100302.88;;;10.59;nan
55685;BME280;41883;49.544;8.646;2023-05-11T02:29:17;100298.41;;;10.59;nan
55685;BME280;41883;49.544;8.646;2023-05-11T02:31:43;100299.41;;;10.58;nan
55685;BME280;41883;49.544;8.646;2023-05-11T02:34:09;100303.81;;;10.58;nan
55685;BME280;41883;49.544;8.646;2023-05-11T02:36:42;100301.03;;;10.59;nan
55685;BME280;41883;49.544;8.646;2023-05-11T02:39:08;100304.69;;;10.58;nan
55685;BME280;41883;49.544;8.646;2023-05-11T02:41:38;100304.69;;;10.58;nan
55685;BME280;41883;49.544;8.646;2023-05-11T02:44:05;100304.81;;;10.57;nan
55685;BME280;41883;49.544;8.646;2023-05-11T02:46:34;100299.69;;;10.55;nan
55685;BME280;41883;49.544;8.646;2023-05-11T02:49:01;100300.69;;;10.54;nan
55685;BME280;41883;49.544;8.646;2023-05-11T02:51:29;100300.84;;;10.53;nan
55685;BME280;41883;49.544;8.646;2023-05-11T02:53:55;100299.19;;;10.52;nan
55685;BME280;41883;49.544;8.646;2023-05-11T02:56:23;100299.19;;;10.52;nan
55685;BME280;41883;49.544;8.646;2023-05-11T02:58:48;100304.47;;;10.52;nan
55685;BME280;41883;49.544;8.646;2023-05-11T03:01:13;100301.97;;;10.50;nan
55685;BME280;41883;49.544;8.646;2023-05-11T03:03:39;100298.66;;;10.48;nan
55685;BME280;41883;49.544;8.646;2023-05-11T03:06:04;100297.69;;;10.49;nan
55685;BME280;41883;49.544;8.646;2023-05-11T03:08:30;100303.94;;;10.48;nan
55685;BME280;41883;49.544;8.646;2023-05-11T03:10:55;100307.72;;;10.46;nan
55685;BME280;41883;49.544;8.646;2023-05-11T03:13:22;100300.94;;;10.43;nan
55685;BME280;41883;49.544;8.646;2023-05-11T03:15:48;100302.91;;;10.41;nan
55685;BME280;41883;49.544;8.646;2023-05-11T03:18:14;100309.03;;;10.41;nan
55685;BME280;41883;49.544;8.646;2023-05-11T03:20:40;100306.22;;;10.43;nan
55685;BME280;41883;49.544;8.646;2023-05-11T03:23:07;100310.38;;;10.46;nan
55685;BME280;41883;49.544;8.646;2023-05-11T03:25:32;100310.22;;;10.47;nan
55685;BME280;41883;49.544;8.646;2023-05-11T03:27:57;100303.13;;;10.48;nan
55685;BME280;41883;49.544;8.646;2023-05-11T03:30:24;100304.63;;;10.50;nan
55685;BME280;41883;49.544;8.646;2023-05-11T03:32:50;100304.63;;;10.50;nan
55685;BME280;41883;49.544;8.646;2023-05-11T03:35:19;100303.66;;;10.51;nan
55685;BME280;41883;49.544;8.646;2023-05-11T03:37:45;100297.50;;;10.51;nan
55685;BME280;41883;49.544;8.646;2023-05-11T03:40:11;100296.69;;;10.50;nan
55685;BME280;41883;49.544;8.646;2023-05-11T03:42:38;100293.91;;;10.52;nan
55685;BME280;41883;49.544;8.646;2023-05-11T03:45:05;100303.47;;;10.53;nan
55685;BME280;41883;49.544;8.646;2023-05-11T03:47:31;100293.91;;;10.52;nan
55685;BME280;41883;49.544;8.646;2023-05-11T03:49:57;100300.84;;;10.53;nan
55685;BME280;41883;49.544;8.646;2023-05-11T03:52:22;100309.59;;;10.53;nan
55685;BME280;41883;49.544;8.646;2023-05-11T03:54:48;100303.47;;;10.53;nan
55685;BME280;41883;49.544;8.646;2023-05-11T03:57:13;100308.75;;;10.53;nan
55685;BME280;41883;49.544;8.646;2023-05-11T03:59:39;100301.97;;;10.50;nan
55685;BME280;41883;49.544;8.646;2023-05-11T04:02:04;100302.97;;;10.49;nan
55685;BME280;41883;49.544;8.646;2023-05-11T04:04:30;100304.78;;;10.49;nan
55685;BME280;41883;49.544;8.646;2023-05-11T04:06:56;100302.97;;;10.49;nan
55685;BME280;41883;49.544;8.646;2023-05-11T04:09:21;100304.47;;;10.52;nan
55685;BME280;41883;49.544;8.646;2023-05-11T04:14:35;100295.75;;;10.59;nan
55685;BME280;41883;49.544;8.646;2023-05-11T04:17:00;100298.94;;;10.63;nan
55685;BME280;41883;49.544;8.646;2023-05-11T04:19:26;100297.78;;;10.66;nan
55685;BME280;41883;49.544;8.646;2023-05-11T04:21:51;100306.53;;;10.66;nan
55685;BME280;41883;49.544;8.646;2023-05-11T04:24:16;100308.34;;;10.66;nan
55685;BME280;41883;49.544;8.646;2023-05-11T04:26:41;100303.72;;;10.68;nan
55685;BME280;41883;49.544;8.646;2023-05-11T04:29:07;100310.34;;;10.72;nan
55685;BME280;41883;49.544;8.646;2023-05-11T04:31:32;100302.94;;;10.75;nan
55685;BME280;41883;49.544;8.646;2023-05-11T04:33:57;100308.72;;;10.79;nan
55685;BME280;41883;49.544;8.646;2023-05-11T04:36:23;100310.22;;;10.81;nan
55685;BME280;41883;49.544;8.646;2023-05-11T04:38:48;100307.28;;;10.84;nan
55685;BME280;41883;49.544;8.646;2023-05-11T04:41:14;100309.75;;;10.86;nan
55685;BME280;41883;49.544;8.646;2023-05-11T04:43:39;100319.03;;;10.90;nan
55685;BME280;41883;49.544;8.646;2023-05-11T04:46:04;100312.44;;;10.94;nan
55685;BME280;41883;49.544;8.646;2023-05-11T04:48:30;100316.59;;;10.97;nan
55685;BME280;41883;49.544;8.646;2023-05-11T04:50:55;100315.25;;;11.01;nan
55685;BME280;41883;49.544;8.646;2023-05-11T04:53:21;100315.63;;;11.06;nan
55685;BME280;41883;49.544;8.646;2023-05-11T04:55:46;100319.59;;;11.10;nan
55685;BME280;41883;49.544;8.646;2023-05-11T04:58:11;100321.63;;;11.16;nan
55685;BME280;41883;49.544;8.646;2023-05-11T05:00:37;100321.97;;;11.21;nan
55685;BME280;41883;49.544;8.646;2023-05-11T05:03:02;100323.78;;;11.29;nan
55685;BME280;41883;49.544;8.646;2023-05-11T05:05:27;100322.50;;;11.33;nan
55685;BME280;41883;49.544;8.646;2023-05-11T05:07:53;100320.19;;;11.38;nan
55685;BME280;41883;49.544;8.646;2023-05-11T05:10:18;100318.06;;;11.42;nan
55685;BME280;41883;49.544;8.646;2023-05-11T05:12:46;100325.19;;;11.50;nan
55685;BME280;41883;49.544;8.646;2023-05-11T05:15:12;100322.72;;;11.56;nan
55685;BME280;41883;49.544;8.646;2023-05-11T05:17:37;100327.34;;;11.62;nan
55685;BME280;41883;49.544;8.646;2023-05-11T05:20:03;100329.00;;;11.72;nan
55685;BME280;41883;49.544;8.646;2023-05-11T05:22:28;100328.19;;;11.79;nan
55685;BME280;41883;49.544;8.646;2023-05-11T05:24:54;100332.84;;;11.85;nan
55685;BME280;41883;49.544;8.646;2023-05-11T05:27:19;100332.03;;;11.93;nan
55685;BME280;41883;49.544;8.646;2023-05-11T05:29:44;100339.00;;;12.02;nan
55685;BME280;41883;49.544;8.646;2023-05-11T05:32:10;100339.66;;;12.04;nan
55685;BME280;41883;49.544;8.646;2023-05-11T05:34:35;100341.63;;;12.10;nan
55685;BME280;41883;49.544;8.646;2023-05-11T05:37:00;100345.63;;;12.15;nan
55685;BME280;41883;49.544;8.646;2023-05-11T05:39:25;100344.97;;;12.21;nan
55685;BME280;41883;49.544;8.646;2023-05-11T05:41:50;100344.94;;;12.29;nan
55685;BME280;41883;49.544;8.646;2023-05-11T05:44:16;100345.94;;;12.36;nan
55685;BME280;41883;49.544;8.646;2023-05-11T05:46:41;100351.22;;;12.44;nan
55685;BME280;41883;49.544;8.646;2023-05-11T05:49:06;100355.84;;;12.50;nan
55685;BME280;41883;49.544;8.646;2023-05-11T05:51:32;100355.34;;;12.55;nan
55685;BME280;41883;49.544;8.646;2023-05-11T05:53:57;100354.03;;;12.59;nan
55685;BME280;41883;49.544;8.646;2023-05-11T05:56:22;100352.50;;;12.65;nan
55685;BME280;41883;49.544;8.646;2023-05-11T05:58:50;100366.75;;;12.72;nan
55685;BME280;41883;49.544;8.646;2023-05-11T06:01:15;100363.28;;;12.71;nan
55685;BME280;41883;49.544;8.646;2023-05-11T06:03:41;100362.59;;;12.78;nan
55685;BME280;41883;49.544;8.646;2023-05-11T06:06:08;100365.75;;;12.73;nan
55685;BME280;41883;49.544;8.646;2023-05-11T06:08:33;100364.09;;;12.80;nan
55685;BME280;41883;49.544;8.646;2023-05-11T06:10:59;100362.56;;;12.86;nan
55685;BME280;41883;49.544;8.646;2023-05-11T06:13:24;100365.88;;;12.88;nan
55685;BME280;41883;49.544;8.646;2023-05-11T06:15:49;100373.81;;;12.96;nan
55685;BME280;41883;49.544;8.646;2023-05-11T06:18:15;100366.50;;;12.98;nan
55685;BME280;41883;49.544;8.646;2023-05-11T06:20:40;100367.69;;;12.95;nan
55685;BME280;41883;49.544;8.646;2023-05-11T06:23:06;100377.28;;;12.96;nan
55685;BME280;41883;49.544;8.646;2023-05-11T06:25:34;100375.59;;;13.04;nan
55685;BME280;41883;49.544;8.646;2023-05-11T06:28:00;100375.94;;;13.09;nan
55685;BME280;41883;49.544;8.646;2023-05-11T06:30:25;100371.63;;;13.08;nan
55685;BME280;41883;49.544;8.646;2023-05-11T06:32:51;100370.28;;;13.12;nan
55685;BME280;41883;49.544;8.646;2023-05-11T06:35:16;100358.97;;;13.18;nan
55685;BME280;41883;49.544;8.646;2023-05-11T06:37:41;100366.56;;;13.29;nan
55685;BME280;41883;49.544;8.646;2023-05-11T06:40:06;100368.03;;;13.40;nan
55685;BME280;41883;49.544;8.646;2023-05-11T06:42:32;100364.66;;;13.46;nan
55685;BME280;41883;49.544;8.646;2023-05-11T06:44:57;100365.31;;;13.48;nan
55685;BME280;41883;49.544;8.646;2023-05-11T06:47:23;100363.81;;;13.54;nan
55685;BME280;41883;49.544;8.646;2023-05-11T06:49:48;100363.22;;;13.67;nan
55685;BME280;41883;49.544;8.646;2023-05-11T06:52:13;100368.47;;;13.75;nan
55685;BME280;41883;49.544;8.646;2023-05-11T06:54:38;100376.53;;;13.90;nan
55685;BME280;41883;49.544;8.646;2023-05-11T06:57:03;100365.81;;;13.98;nan
55685;BME280;41883;49.544;8.646;2023-05-11T06:59:29;100364.28;;;14.03;nan
55685;BME280;41883;49.544;8.646;2023-05-11T07:01:57;100364.75;;;14.07;nan
55685;BME280;41883;49.544;8.646;2023-05-11T07:04:23;100357.06;;;14.12;nan
55685;BME280;41883;49.544;8.646;2023-05-11T07:06:48;100368.47;;;14.21;nan
55685;BME280;41883;49.544;8.646;2023-05-11T07:09:13;100365.06;;;14.27;nan
55685;BME280;41883;49.544;8.646;2023-05-11T07:11:39;100365.34;;;14.32;nan
55685;BME280;41883;49.544;8.646;2023-05-11T07:14:05;100371.00;;;14.37;nan
55685;BME280;41883;49.544;8.646;2023-05-11T07:16:32;100365.66;;;14.37;nan
55685;BME280;41883;49.544;8.646;2023-05-11T07:19:01;100367.19;;;14.32;nan
55685;BME280;41883;49.544;8.646;2023-05-11T07:21:27;100367.59;;;14.06;nan
55685;BME280;41883;49.544;8.646;2023-05-11T07:23:52;100371.38;;;14.11;nan
55685;BME280;41883;49.544;8.646;2023-05-11T07:26:18;100375.03;;;14.10;nan
55685;BME280;41883;49.544;8.646;2023-05-11T07:28:43;100377.72;;;14.25;nan
55685;BME280;41883;49.544;8.646;2023-05-11T07:31:08;100374.00;;;14.34;nan
55685;BME280;41883;49.544;8.646;2023-05-11T07:33:35;100377.25;;;14.44;nan
55685;BME280;41883;49.544;8.646;2023-05-11T07:36:01;100377.88;;;14.47;nan
55685;BME280;41883;49.544;8.646;2023-05-11T07:38:26;100374.19;;;14.33;nan
55685;BME280;41883;49.544;8.646;2023-05-11T07:40:51;100371.59;;;14.24;nan
55685;BME280;41883;49.544;8.646;2023-05-11T07:43:16;100369.00;;;14.16;nan
55685;BME280;41883;49.544;8.646;2023-05-11T07:45:42;100376.25;;;14.22;nan
55685;BME280;41883;49.544;8.646;2023-05-11T07:48:07;100374.06;;;14.26;nan
55685;BME280;41883;49.544;8.646;2023-05-11T07:50:32;100369.50;;;14.35;nan
55685;BME280;41883;49.544;8.646;2023-05-11T07:52:57;100376.59;;;14.42;nan
55685;BME280;41883;49.544;8.646;2023-05-11T07:55:23;100377.47;;;14.35;nan
55685;BME280;41883;49.544;8.646;2023-05-11T07:57:54;100375.53;;;14.29;nan
55685;BME280;41883;49.544;8.646;2023-05-11T08:00:19;100376.19;;;14.31;nan
55685;BME280;41883;49.544;8.646;2023-05-11T08:02:45;100364.81;;;14.37;nan
55685;BME280;41883;49.544;8.646;2023-05-11T08:05:10;100372.75;;;14.45;nan
55685;BME280;41883;49.544;8.646;2023-05-11T08:07:35;100372.75;;;14.45;nan
55685;BME280;41883;49.544;8.646;2023-05-11T08:10:00;100373.56;;;14.45;nan
55685;BME280;41883;49.544;8.646;2023-05-11T08:12:26;100376.66;;;14.57;nan
55685;BME280;41883;49.544;8.646;2023-05-11T08:14:51;100376.75;;;14.64;nan
55685;BME280;41883;49.544;8.646;2023-05-11T08:17:16;100370.50;;;14.72;nan
55685;BME280;41883;49.544;8.646;2023-05-11T08:19:41;100370.72;;;14.85;nan
55685;BME280;41883;49.544;8.646;2023-05-11T08:22:07;100372.06;;;14.96;nan
55685;BME280;41883;49.544;8.646;2023-05-11T08:24:32;100373.16;;;15.01;nan
55685;BME280;41883;49.544;8.646;2023-05-11T08:26:57;100371.91;;;14.97;nan
55685;BME280;41883;49.544;8.646;2023-05-11T08:29:22;100380.59;;;15.06;nan
55685;BME280;41883;49.544;8.646;2023-05-11T08:31:51;100375.16;;;15.29;nan
55685;BME280;41883;49.544;8.646;2023-05-11T08:34:16;100383.03;;;15.52;nan
55685;BME280;41883;49.544;8.646;2023-05-11T08:36:41;100376.94;;;15.58;nan
55685;BME280;41883;49.544;8.646;2023-05-11T08:39:06;100379.34;;;15.53;nan
55685;BME280;41883;49.544;8.646;2023-05-11T08:41:32;100383.47;;;15.56;nan
55685;BME280;41883;49.544;8.646;2023-05-11T08:43:57;100382.09;;;15.60;nan
55685;BME280;41883;49.544;8.646;2023-05-11T08:46:23;100377.50;;;15.54;nan
55685;BME280;41883;49.544;8.646;2023-05-11T08:48:53;100377.44;;;15.47;nan
55685;BME280;41883;49.544;8.646;2023-05-11T08:51:19;100377.22;;;15.48;nan
55685;BME280;41883;49.544;8.646;2023-05-11T08:53:45;100369.06;;;15.50;nan
55685;BME280;41883;49.544;8.646;2023-05-11T08:56:10;100371.72;;;15.50;nan
55685;BME280;41883;49.544;8.646;2023-05-11T08:58:35;100377.22;;;15.48;nan
55685;BME280;41883;49.544;8.646;2023-05-11T09:01:02;100371.38;;;15.38;nan
55685;BME280;41883;49.544;8.646;2023-05-11T09:03:28;100371.75;;;15.35;nan
55685;BME280;41883;49.544;8.646;2023-05-11T09:05:53;100377.63;;;15.45;nan
55685;BME280;41883;49.544;8.646;2023-05-11T09:08:19;100374.03;;;15.38;nan
55685;BME280;41883;49.544;8.646;2023-05-11T09:10:46;100383.94;;;15.44;nan
55685;BME280;41883;49.544;8.646;2023-05-11T09:13:12;100386.13;;;15.56;nan
55685;BME280;41883;49.544;8.646;2023-05-11T09:15:38;100385.00;;;15.65;nan
55685;BME280;41883;49.544;8.646;2023-05-11T09:18:03;100391.25;;;15.72;nan
55685;BME280;41883;49.544;8.646;2023-05-11T09:20:29;100386.97;;;15.71;nan
55685;BME280;41883;49.544;8.646;2023-05-11T09:22:55;100391.53;;;15.77;nan
55685;BME280;41883;49.544;8.646;2023-05-11T09:25:21;100383.59;;;15.84;nan
55685;BME280;41883;49.544;8.646;2023-05-11T09:27:46;100389.44;;;15.94;nan
55685;BME280;41883;49.544;8.646;2023-05-11T09:30:12;100377.84;;;16.02;nan
55685;BME280;41883;49.544;8.646;2023-05-11T09:32:51;100381.38;;;16.09;nan
55685;BME280;41883;49.544;8.646;2023-05-11T09:38:04;100379.22;;;16.19;nan
55685;BME280;41883;49.544;8.646;2023-05-11T09:40:35;100378.25;;;16.27;nan
55685;BME280;41883;49.544;8.646;2023-05-11T09:43:01;100377.66;;;16.31;nan
55685;BME280;41883;49.544;8.646;2023-05-11T09:45:33;100384.34;;;16.42;nan
55685;BME280;41883;49.544;8.646;2023-05-11T09:48:00;100382.31;;;16.51;nan
55685;BME280;41883;49.544;8.646;2023-05-11T09:50:28;100385.88;;;16.58;nan
55685;BME280;41883;49.544;8.646;2023-05-11T09:52:55;100382.63;;;16.63;nan
55685;BME280;41883;49.544;8.646;2023-05-11T09:55:21;100381.91;;;16.47;nan
55685;BME280;41883;49.544;8.646;2023-05-11T09:57:51;100380.41;;;16.38;nan
55685;BME280;41883;49.544;8.646;2023-05-11T10:00:17;100378.16;;;16.42;nan
55685;BME280;41883;49.544;8.646;2023-05-11T10:02:42;100378.78;;;16.44;nan
55685;BME280;41883;49.544;8.646;2023-05-11T10:05:11;100375.94;;;16.45;nan
55685;BME280;41883;49.544;8.646;2023-05-11T10:07:37;100384.19;;;16.50;nan
55685;BME280;41883;49.544;8.646;2023-05-11T10:12:28;100383.66;;;16.62;nan
55685;BME280;41883;49.544;8.646;2023-05-11T10:15:08;100380.13;;;16.61;nan
55685;BME280;41883;49.544;8.646;2023-05-11T10:17:35;100388.75;;;16.85;nan
55685;BME280;41883;49.544;8.646;2023-05-11T10:20:01;100373.47;;;17.13;nan
55685;BME280;41883;49.544;8.646;2023-05-11T10:22:27;100379.16;;;17.38;nan
55685;BME280;41883;49.544;8.646;2023-05-11T10:24:53;100369.56;;;17.57;nan
55685;BME280;41883;49.544;8.646;2023-05-11T10:27:20;100369.75;;;17.56;nan
55685;BME280;41883;49.544;8.646;2023-05-11T10:29:46;100372.66;;;17.68;nan
55685;BME280;41883;49.544;8.646;2023-05-11T10:32:11;100368.16;;;17.75;nan
55685;BME280;41883;49.544;8.646;2023-05-11T10:34:37;100374.75;;;17.79;nan
55685;BME280;41883;49.544;8.646;2023-05-11T10:37:05;100364.66;;;17.74;nan
55685;BME280;41883;49.544;8.646;2023-05-11T10:39:32;100364.44;;;17.69;nan
55685;BME280;41883;49.544;8.646;2023-05-11T10:52:34;100359.78;;;18.18;nan
55685;BME280;41883;49.544;8.646;2023-05-11T10:57:52;100358.56;;;18.27;nan
55685;BME280;41883;49.544;8.646;2023-05-11T11:03:09;100355.06;;;18.33;nan
55685;BME280;41883;49.544;8.646;2023-05-11T11:05:35;100360.38;;;18.53;nan
55685;BME280;41883;49.544;8.646;2023-05-11T11:08:02;100364.06;;;18.59;nan
55685;BME280;41883;49.544;8.646;2023-05-11T11:10:38;100359.53;;;18.66;nan
55685;BME280;41883;49.544;8.646;2023-05-11T11:13:07;100360.56;;;18.85;nan
55685;BME280;41883;49.544;8.646;2023-05-11T11:18:20;100353.44;;;19.24;nan
55685;BME280;41883;49.544;8.646;2023-05-11T11:20:47;100354.63;;;19.28;nan
55685;BME280;41883;49.544;8.646;2023-05-11T11:23:55;100353.00;;;19.27;nan
55685;BME280;41883;49.544;8.646;2023-05-11T11:26:01;100347.47;;;19.15;nan
55685;BME280;41883;49.544;8.646;2023-05-11T11:28:36;100345.63;;;19.09;nan
55685;BME280;41883;49.544;8.646;2023-05-11T11:31:23;100339.72;;;18.94;nan
55685;BME280;41883;49.544;8.646;2023-05-11T11:33:49;100343.63;;;18.98;nan
55685;BME280;41883;49.544;8.646;2023-05-11T11:36:14;100340.69;;;19.06;nan
55685;BME280;41883;49.544;8.646;2023-05-11T11:38:56;100346.03;;;19.13;nan
55685;BME280;41883;49.544;8.646;2023-05-11T11:41:26;100342.75;;;19.10;nan
55685;BME280;41883;49.544;8.646;2023-05-11T11:43:52;100339.06;;;19.12;nan
55685;BME280;41883;49.544;8.646;2023-05-11T11:46:26;100341.91;;;19.17;nan
55685;BME280;41883;49.544;8.646;2023-05-11T11:48:56;100338.81;;;19.13;nan
55685;BME280;41883;49.544;8.646;2023-05-11T11:51:34;100337.66;;;18.89;nan
55685;BME280;41883;49.544;8.646;2023-05-11T11:54:01;100338.88;;;19.00;nan
55685;BME280;41883;49.544;8.646;2023-05-11T11:58:58;100337.03;;;18.94;nan
55685;BME280;41883;49.544;8.646;2023-05-11T12:01:25;100335.44;;;18.86;nan
55685;BME280;41883;49.544;8.646;2023-05-11T12:06:20;100337.63;;;19.02;nan
55685;BME280;41883;49.544;8.646;2023-05-11T12:08:47;100333.06;;;19.09;nan
55685;BME280;41883;49.544;8.646;2023-05-11T12:11:15;100332.22;;;19.09;nan
55685;BME280;41883;49.544;8.646;2023-05-11T12:13:41;100329.16;;;19.12;nan
55685;BME280;41883;49.544;8.646;2023-05-11T12:16:10;100322.50;;;19.21;nan
55685;BME280;41883;49.544;8.646;2023-05-11T12:18:36;100331.59;;;19.14;nan
55685;BME280;41883;49.544;8.646;2023-05-11T12:21:02;100326.66;;;19.17;nan
55685;BME280;41883;49.544;8.646;2023-05-11T12:23:28;100322.84;;;19.38;nan
55685;BME280;41883;49.544;8.646;2023-05-11T12:26:03;100322.53;;;19.53;nan
55685;BME280;41883;49.544;8.646;2023-05-11T12:28:28;100324.94;;;19.68;nan
55685;BME280;41883;49.544;8.646;2023-05-11T12:30:54;100321.63;;;19.66;nan
55685;BME280;41883;49.544;8.646;2023-05-11T12:33:19;100324.31;;;19.66;nan
55685;BME280;41883;49.544;8.646;2023-05-11T12:35:45;100314.50;;;19.53;nan
55685;BME280;41883;49.544;8.646;2023-05-11T12:38:15;100315.56;;;19.45;nan
55685;BME280;41883;49.544;8.646;2023-05-11T12:40:45;100312.25;;;19.50;nan
55685;BME280;41883;49.544;8.646;2023-05-11T12:43:15;100307.91;;;19.49;nan
55685;BME280;41883;49.544;8.646;2023-05-11T12:45:40;100311.41;;;19.49;nan
55685;BME280;41883;49.544;8.646;2023-05-11T12:48:06;100308.34;;;19.46;nan
55685;BME280;41883;49.544;8.646;2023-05-11T12:50:31;100306.00;;;19.24;nan
55685;BME280;41883;49.544;8.646;2023-05-11T12:53:10;100303.84;;;19.40;nan
55685;BME280;41883;49.544;8.646;2023-05-11T12:55:36;100308.69;;;19.56;nan
55685;BME280;41883;49.544;8.646;2023-05-11T12:58:09;100302.03;;;19.65;nan
55685;BME280;41883;49.544;8.646;2023-05-11T13:00:34;100303.91;;;19.65;nan
55685;BME280;41883;49.544;8.646;2023-05-11T13:03:00;100300.09;;;19.79;nan
55685;BME280;41883;49.544;8.646;2023-05-11T13:05:25;100294.84;;;19.91;nan
55685;BME280;41883;49.544;8.646;2023-05-11T13:08:01;100283.84;;;19.99;nan
55685;BME280;41883;49.544;8.646;2023-05-11T13:10:26;100287.28;;;20.06;nan
55685;BME280;41883;49.544;8.646;2023-05-11T13:12:52;100288.75;;;19.77;nan
55685;BME280;41883;49.544;8.646;2023-05-11T13:15:17;100275.75;;;19.81;nan
55685;BME280;41883;49.544;8.646;2023-05-11T13:17:43;100272.63;;;19.84;nan
55685;BME280;41883;49.544;8.646;2023-05-11T13:22:40;100270.75;;;20.09;nan
55685;BME280;41883;49.544;8.646;2023-05-11T13:25:05;100272.59;;;20.09;nan
55685;BME280;41883;49.544;8.646;2023-05-11T13:27:33;100271.31;;;19.93;nan
55685;BME280;41883;49.544;8.646;2023-05-11T13:29:58;100268.47;;;19.88;nan
55685;BME280;41883;49.544;8.646;2023-05-11T13:32:26;100273.34;;;19.98;nan
55685;BME280;41883;49.544;8.646;2023-05-11T13:34:51;100266.81;;;20.12;nan
55685;BME280;41883;49.544;8.646;2023-05-11T13:37:16;100259.56;;;20.12;nan
55685;BME280;41883;49.544;8.646;2023-05-11T13:39:42;100264.69;;;20.14;nan
55685;BME280;41883;49.544;8.646;2023-05-11T13:42:07;100261.53;;;20.24;nan
55685;BME280;41883;49.544;8.646;2023-05-11T13:44:32;100258.59;;;20.25;nan
55685;BME280;41883;49.544;8.646;2023-05-11T13:46:57;100260.84;;;20.28;nan
55685;BME280;41883;49.544;8.646;2023-05-11T13:49:22;100256.75;;;20.26;nan
55685;BME280;41883;49.544;8.646;2023-05-11T13:51:48;100257.19;;;20.23;nan
55685;BME280;41883;49.544;8.646;2023-05-11T13:54:13;100246.38;;;20.29;nan